»·PEaware :: N626PX KJAC-KSUN

N626PX :: KJAC-KSUN

FLIGHT INFORMATION

Flight Status: Arrived
Operator: Privately registered:
United States
More flights under this callsign
Pilot: Alvin H. (31449)
Aircraft: Unknown
(TBM)
More flights by this aircraft type
Origin: KJAC Jackson Hole
United States
Destination: KSUN Friedman Meml
United States
More flights between these airports :: More routes between these airports
Route: KJAC FEBED KSUN
File this flight plan on PilotEdge
Remarks:
Altitude:
(Current/Filed)
14,500ft
Speed:
(Current/Filed)
220kts
Departed: 12-Sep-20 01:54 PM
Arrived: 12-Sep-20 02:38 PM
Distance/Time
Traveled:
155nm/0:44
Distance/Time
To Go:
Arrived

Flight Plot

Page will automatically refresh every two minutes.

Flight plan parsing failed; only flown route is shown


Map Options




Map Legend


Flown Route
Filed Route
Departure Airport
Arrival Airport
Navaid (VOR, NDB)
Fix

Horizontal Profiles

Position Reports

Time Latitude Longitude Heading Altitude Ground
Speed
12-Sep-20 13:33 43.600761 -110.738636 254 6421ft 0kts
12-Sep-20 13:34 43.600761 -110.738636 254 6421ft 0kts
12-Sep-20 13:35 43.600761 -110.738636 254 6421ft 0kts
12-Sep-20 13:36 43.600761 -110.738636 254 6421ft 0kts
12-Sep-20 13:37 43.600761 -110.738636 254 6421ft 0kts
12-Sep-20 13:38 0.000408 0.013975 0 3ft 0kts
12-Sep-20 13:39 43.604808 -110.736517 198 6432ft 0kts
12-Sep-20 13:41 43.604808 -110.736517 198 6431ft 0kts
12-Sep-20 13:42 43.604808 -110.736517 198 6431ft 0kts
12-Sep-20 13:43 43.604808 -110.736517 198 6431ft 0kts
12-Sep-20 13:44 43.604808 -110.736517 198 6431ft 0kts
12-Sep-20 13:45 43.604808 -110.736517 198 6431ft 0kts
12-Sep-20 13:46 43.604808 -110.736517 198 6431ft 0kts
12-Sep-20 13:47 43.604808 -110.736517 198 6431ft 0kts
12-Sep-20 13:48 43.605110 -110.737090 324 6431ft 4kts
12-Sep-20 13:49 43.607522 -110.736046 20 6437ft 12kts
12-Sep-20 13:50 43.610609 -110.734530 19 6444ft 14kts
12-Sep-20 13:51 43.614898 -110.732547 335 6454ft 3kts
12-Sep-20 13:52 43.614923 -110.732563 334 6454ft 0kts
12-Sep-20 13:53 43.613698 -110.734626 200 6450ft 50kts
12-Sep-20 13:54 43.584149 -110.752229 215 7385ft 151kts
12-Sep-20 13:55 43.544958 -110.779358 206 9475ft 158kts
12-Sep-20 13:56 43.513748 -110.823710 273 11234ft 185kts
12-Sep-20 13:57 43.526910 -110.898037 283 12836ft 204kts
12-Sep-20 13:58 43.541192 -110.975853 284 14119ft 218kts
12-Sep-20 13:59 43.556685 -111.060540 280 14932ft 234kts
12-Sep-20 14:00 43.566965 -111.154455 280 14591ft 261kts
12-Sep-20 14:01 43.583725 -111.254620 284 13863ft 273kts
12-Sep-20 14:02 43.597273 -111.352311 274 13979ft 258kts
12-Sep-20 14:03 43.604782 -111.447362 274 14327ft 252kts
12-Sep-20 14:04 43.604922 -111.544347 266 14261ft 256kts
12-Sep-20 14:05 43.607181 -111.643518 274 14139ft 262kts
12-Sep-20 14:06 43.608186 -111.742549 266 14103ft 255kts
12-Sep-20 14:07 43.609279 -111.842845 275 13799ft 263kts
12-Sep-20 14:08 43.609654 -111.939278 250 14281ft 250kts
12-Sep-20 14:09 43.591520 -112.032544 258 14674ft 248kts
12-Sep-20 14:10 43.582848 -112.129228 259 14767ft 258kts
12-Sep-20 14:11 43.577883 -112.229510 266 14788ft 264kts
12-Sep-20 14:12 43.574765 -112.331010 266 14802ft 264kts
12-Sep-20 14:13 43.571836 -112.432549 267 14801ft 265kts
12-Sep-20 14:14 43.568903 -112.534086 267 14797ft 265kts
12-Sep-20 14:15 43.565882 -112.635932 267 14792ft 265kts
12-Sep-20 14:16 43.562775 -112.737353 267 14787ft 265kts
12-Sep-20 14:17 43.559515 -112.839137 267 14782ft 265kts
12-Sep-20 14:18 43.556291 -112.940356 267 14776ft 264kts
12-Sep-20 14:19 43.552926 -113.041587 266 14770ft 264kts
12-Sep-20 14:20 43.549485 -113.142703 266 14795ft 263kts
12-Sep-20 14:21 43.545973 -113.243086 266 14792ft 263kts
12-Sep-20 14:22 43.542319 -113.344270 265 14787ft 263kts
12-Sep-20 14:23 43.513881 -113.436180 240 14783ft 262kts
12-Sep-20 14:24 43.481846 -113.526082 253 14779ft 262kts
12-Sep-20 14:25 43.465539 -113.624027 257 14781ft 262kts
12-Sep-20 14:26 43.449161 -113.721604 254 14810ft 250kts
12-Sep-20 14:27 43.432753 -113.803195 254 13804ft 209kts
12-Sep-20 14:28 43.416573 -113.879615 251 12121ft 211kts
12-Sep-20 14:29 43.383677 -113.948474 231 10131ft 214kts
12-Sep-20 14:30 43.348307 -114.011406 234 8588ft 201kts
12-Sep-20 14:31 43.323621 -114.072110 269 7770ft 170kts
12-Sep-20 14:32 43.332539 -114.137622 295 7526ft 192kts
12-Sep-20 14:33 43.371130 -114.191409 326 7533ft 216kts
12-Sep-20 14:34 43.423240 -114.227352 334 7042ft 196kts
12-Sep-20 14:35 43.465565 -114.258018 322 6312ft 150kts
12-Sep-20 14:36 43.498375 -114.290369 324 5279ft 129kts
12-Sep-20 14:37 43.503676 -114.296654 233 5297ft 4kts
12-Sep-20 14:38 43.502433 -114.295723 145 5292ft 12kts
12-Sep-20 14:39 43.501072 -114.295613 175 5289ft 4kts

Navigation Log

Ident Type
Flight plan parsing failed, navigation log unavailable